Time;durP1;ratioP1;P1;durP2;ratioP2;P2;SDS_P1;SDS_P2;PMS_P1;PMS_P2;Temp;Humidity;BMP_temperature;BMP_pressure;BME280_temperature;BME280_humidity;BME280_pressure;Samples;Min_cycle;Max_cycle;Signal;HPM_P1;HPM_P2
2022/06/10 00:01:18;;;;;;;8.00;4.50;;;;;;;19.44;68.66;98553.86;104760;1271;75400;-24
2022/06/10 00:03:46;;;;;;;13.40;4.70;;;;;;;19.56;67.80;98551.05;104756;1271;62259;-24
2022/06/10 00:06:15;;;;;;;8.40;4.90;;;;;;;19.45;68.17;98556.35;104815;1271;61669;-24
2022/06/10 00:08:46;;;;;;;13.70;5.30;;;;;;;19.25;68.07;98562.73;104694;1271;76600;-24
2022/06/10 00:11:14;;;;;;;13.70;5.30;;;;;;;19.05;67.82;98565.72;104761;1271;77241;-23
2022/06/10 00:13:45;;;;;;;9.10;5.60;;;;;;;18.88;68.07;98576.41;104641;1271;75444;-24
2022/06/10 00:16:14;;;;;;;6.70;5.00;;;;;;;18.75;68.64;98573.46;105002;1271;61821;-24
2022/06/10 00:18:42;;;;;;;6.00;4.20;;;;;;;18.63;68.26;98570.08;105137;1271;63053;-24
2022/06/10 00:21:11;;;;;;;7.90;4.60;;;;;;;18.57;67.08;98569.48;105083;1271;76567;-24
2022/06/10 00:23:40;;;;;;;5.60;3.60;;;;;;;18.56;66.86;98570.78;104984;1271;75665;-24
2022/06/10 00:26:08;;;;;;;5.30;3.50;;;;;;;19.13;66.57;98567.44;104730;1271;74367;-24
2022/06/10 00:28:36;;;;;;;5.90;3.80;;;;;;;19.70;64.06;98561.11;104792;1271;62085;-24
2022/06/10 00:31:04;;;;;;;7.30;4.00;;;;;;;19.76;63.32;98560.02;104643;1270;61665;-24
2022/06/10 00:33:34;;;;;;;10.70;4.50;;;;;;;19.63;63.90;98560.25;104822;1271;74755;-24
2022/06/10 00:36:02;;;;;;;8.30;4.70;;;;;;;19.41;64.61;98560.71;104926;1271;75939;-24
2022/06/10 00:38:30;;;;;;;12.30;6.20;;;;;;;19.28;64.92;98562.87;104684;1274;75458;-24
2022/06/10 00:40:57;;;;;;;10.40;5.60;;;;;;;19.16;65.69;98566.61;104739;1271;62138;-23
2022/06/10 00:43:26;;;;;;;21.70;9.10;;;;;;;18.97;65.65;98567.39;104972;1271;62026;-24
2022/06/10 00:46:00;;;;;;;14.20;8.20;;;;;;;18.85;66.07;98562.98;104775;1271;75364;-24
2022/06/10 00:48:37;;;;;;;15.20;8.10;;;;;;;18.77;66.30;98563.13;104654;1271;76330;-24
2022/06/10 00:51:47;;;;;;;9.40;5.70;;;;;;;18.74;66.60;98562.26;104810;1269;73363;-24
2022/06/10 00:54:25;;;;;;;9.80;5.70;;;;;;;19.51;64.84;98556.73;104327;1277;63084;-24
2022/06/10 00:56:56;;;;;;;10.00;6.40;;;;;;;19.94;62.25;98557.80;104266;1277;61935;-24
2022/06/10 00:59:25;;;;;;;12.20;5.20;;;;;;;19.92;62.56;98559.54;104271;1277;76579;-24
2022/06/10 01:02:02;;;;;;;9.80;6.40;;;;;;;19.72;63.03;98559.58;104316;1277;75900;-24
2022/06/10 01:04:29;;;;;;;7.30;4.80;;;;;;;19.51;63.70;98561.59;104340;1277;75650;-24
2022/06/10 01:06:56;;;;;;;13.30;7.70;;;;;;;19.32;64.86;98560.62;104329;1277;61864;-24
2022/06/10 01:09:24;;;;;;;12.50;7.00;;;;;;;19.06;65.14;98567.02;104311;1277;61980;-24
2022/06/10 01:11:54;;;;;;;9.60;6.40;;;;;;;18.90;64.76;98562.09;104289;1277;74395;-24
2022/06/10 01:14:24;;;;;;;9.30;6.70;;;;;;;18.78;64.90;98563.66;104329;1277;75867;-24
2022/06/10 01:17:27;;;;;;;9.30;6.40;;;;;;;18.66;64.80;98563.15;104291;1277;75674;-24
2022/06/10 01:20:00;;;;;;;9.50;6.50;;;;;;;18.50;64.85;98567.35;104624;1277;61762;-23
2022/06/10 01:22:55;;;;;;;10.50;6.40;;;;;;;18.36;65.04;98564.59;104369;1277;61807;-23
2022/06/10 01:25:41;;;;;;;7.10;4.60;;;;;;;18.27;66.05;98563.80;104651;1277;75570;-24
2022/06/10 01:28:14;;;;;;;6.30;4.20;;;;;;;18.98;65.16;98561.48;104802;1271;75683;-24
2022/06/10 01:31:00;;;;;;;5.60;4.40;;;;;;;19.47;63.50;98557.30;104845;1271;75392;-24
2022/06/10 01:33:30;;;;;;;11.20;4.60;;;;;;;19.44;63.97;98560.83;104703;1271;62047;-24
2022/06/10 01:36:22;;;;;;;6.20;4.00;;;;;;;19.18;65.32;98560.37;104751;1271;62570;-24
2022/06/10 01:39:07;;;;;;;8.10;4.00;;;;;;;18.80;66.10;98564.58;104856;1271;76638;-23
2022/06/10 01:41:43;;;;;;;5.90;3.60;;;;;;;18.46;67.10;98569.05;104729;1271;77384;-24
2022/06/10 01:44:32;;;;;;;5.20;4.00;;;;;;;18.13;68.39;98570.19;104678;1271;74278;-24
2022/06/10 01:47:16;;;;;;;8.00;3.90;;;;;;;17.84;68.87;98566.88;104788;1271;61712;-24
2022/06/10 01:50:00;;;;;;;5.60;3.60;;;;;;;17.63;69.81;98570.29;104685;1271;61494;-23
2022/06/10 01:52:37;;;;;;;4.90;4.00;;;;;;;18.16;68.70;98572.80;104753;1271;75692;-24
2022/06/10 01:55:10;;;;;;;8.90;4.20;;;;;;;18.60;67.00;98568.34;104722;1271;76442;-24
2022/06/10 01:58:14;;;;;;;5.10;4.20;;;;;;;18.60;66.24;98570.32;104842;1274;75386;-24
2022/06/10 02:00:48;;;;;;;6.40;4.50;;;;;;;18.34;66.43;98567.56;104878;1271;61828;-24
2022/06/10 02:03:23;;;;;;;5.90;4.40;;;;;;;18.06;67.19;98568.04;104811;1274;63087;-24
2022/06/10 02:05:57;;;;;;;8.30;5.00;;;;;;;17.83;67.56;98569.39;104825;1271;75858;-24
2022/06/10 02:08:30;;;;;;;6.80;4.90;;;;;;;17.62;68.28;98571.45;104857;1271;77274;-24
2022/06/10 02:10:57;;;;;;;;;;;;;;;17.40;69.14;98567.19;104678;1271;74369;-24
2022/06/10 02:13:28;;;;;;;7.60;5.10;;;;;;;17.17;70.49;98571.64;105100;1271;62050;-24
2022/06/10 02:15:58;;;;;;;9.90;3.60;;;;;;;16.98;70.63;98574.89;104669;1271;63105;-24
2022/06/10 02:18:31;;;;;;;4.70;3.50;;;;;;;17.43;70.28;98578.11;104828;1271;76554;-24
2022/06/10 02:21:21;;;;;;;;;;;;;;;17.98;68.42;98579.72;104735;1271;77098;-24
2022/06/10 02:23:56;;;;;;;5.40;4.00;;;;;;;17.99;67.99;98583.42;104725;1272;74676;-24
2022/06/10 02:26:24;;;;;;;4.30;3.90;;;;;;;17.92;67.82;98590.02;104614;1274;61719;-24
2022/06/10 02:28:52;;;;;;;6.30;3.80;;;;;;;17.87;67.58;98592.73;104776;1271;61703;-24
2022/06/10 02:31:29;;;;;;;5.00;4.30;;;;;;;17.82;67.35;98594.58;104859;1271;75510;-23
2022/06/10 02:33:56;;;;;;;5.10;4.20;;;;;;;17.74;67.51;98593.91;104653;1271;76855;-24
2022/06/10 02:36:37;;;;;;;7.50;4.20;;;;;;;17.61;67.79;98594.38;104708;1274;75660;-24
2022/06/10 02:39:08;;;;;;;4.80;3.00;;;;;;;17.62;68.54;98597.61;104621;1271;64734;-23
2022/06/10 02:41:46;;;;;;;7.10;3.50;;;;;;;18.48;67.28;98599.20;104737;1271;63208;-23
2022/06/10 02:44:37;;;;;;;6.40;3.60;;;;;;;19.45;64.64;98595.58;104693;1271;76588;-25
2022/06/10 02:47:27;;;;;;;4.90;3.70;;;;;;;19.89;62.90;98588.95;104742;1271;76700;-24
2022/06/10 02:49:54;;;;;;;7.00;4.00;;;;;;;19.99;61.78;98593.16;105159;1271;74386;-24
2022/06/10 02:52:23;;;;;;;4.60;3.80;;;;;;;19.94;61.80;98594.36;105138;1271;61793;-24
2022/06/10 02:54:50;;;;;;;4.50;3.90;;;;;;;19.95;61.95;98596.52;104964;1272;61022;-24
2022/06/10 02:57:21;;;;;;;7.10;4.00;;;;;;;19.89;61.88;98595.21;104745;1271;74841;-24
2022/06/10 03:02:51;;;;;;;8.40;4.30;;;;;;;19.94;61.49;98600.23;105127;1271;74633;-23
2022/06/10 03:05:32;;;;;;;7.20;4.80;;;;;;;20.09;61.10;98601.45;105076;1271;62030;-24
2022/06/10 03:08:24;;;;;;;6.50;4.60;;;;;;;20.20;60.63;98601.77;104738;1271;497398;-24
2022/06/10 03:11:17;;;;;;;8.40;4.20;;;;;;;20.41;59.85;98604.98;104801;1271;75405;-24
2022/06/10 03:14:08;;;;;;;9.90;4.70;;;;;;;20.59;59.60;98609.59;105115;1271;77217;-24
2022/06/10 03:17:11;;;;;;;7.70;5.20;;;;;;;20.73;59.21;98610.39;105067;1271;75538;-24
2022/06/10 03:19:58;;;;;;;8.60;5.30;;;;;;;20.87;59.47;98608.86;104768;1271;61792;-24
2022/06/10 03:22:28;;;;;;;10.20;4.40;;;;;;;21.12;58.52;98610.66;104758;1271;61792;-24
2022/06/10 03:25:20;;;;;;;14.00;5.80;;;;;;;21.27;59.12;98607.99;104725;1270;75347;-24
2022/06/10 03:28:06;;;;;;;7.60;5.80;;;;;;;21.47;58.91;98608.45;104888;1271;76450;-24
2022/06/10 03:30:37;;;;;;;10.60;6.20;;;;;;;21.70;58.73;98609.48;104740;1271;75409;-24
2022/06/10 03:33:11;;;;;;;10.00;7.70;;;;;;;21.89;57.42;98607.31;104764;1271;62092;-24
2022/06/10 03:35:51;;;;;;;11.50;8.40;;;;;;;21.97;56.50;98608.18;104769;1271;61631;-24
2022/06/10 03:38:18;;;;;;;14.10;7.40;;;;;;;22.14;57.29;98609.77;104776;1271;75528;-24
2022/06/10 03:40:53;;;;;;;8.90;6.70;;;;;;;22.35;57.41;98613.33;104666;1271;77007;-24
2022/06/10 03:43:28;;;;;;;7.60;6.60;;;;;;;22.58;56.11;98611.02;104752;1271;75492;-24
2022/06/10 03:46:01;;;;;;;11.10;6.70;;;;;;;22.76;55.38;98608.08;104692;1271;62937;-24
2022/06/10 03:48:31;;;;;;;9.30;7.00;;;;;;;22.94;54.71;98609.79;104759;1271;62906;-24
2022/06/10 03:50:58;;;;;;;10.40;7.20;;;;;;;23.11;53.76;98608.46;104716;1272;75945;-24
2022/06/10 03:53:26;;;;;;;12.80;7.50;;;;;;;23.27;53.05;98612.43;104744;1271;77331;-24
2022/06/10 03:55:53;;;;;;;9.80;7.80;;;;;;;23.40;52.42;98610.59;104756;1271;74424;-24
2022/06/10 03:58:21;;;;;;;7.80;7.00;;;;;;;23.54;52.52;98606.77;104809;1271;62198;-24
2022/06/10 04:00:48;;;;;;;10.80;5.40;;;;;;;23.75;51.59;98608.67;104875;1271;61899;-23
2022/06/10 04:03:15;;;;;;;11.20;6.10;;;;;;;23.80;50.44;98609.35;104933;1271;76559;-24
2022/06/10 04:05:43;;;;;;;6.80;4.70;;;;;;;23.97;50.75;98608.25;104849;1271;77238;-24
2022/06/10 04:08:30;;;;;;;12.20;4.60;;;;;;;24.06;49.58;98612.66;104848;1271;74146;-24
2022/06/10 04:10:57;;;;;;;9.70;5.50;;;;;;;24.06;48.21;98610.86;104870;1271;61871;-24
2022/06/10 04:13:25;;;;;;;14.20;7.70;;;;;;;23.80;48.05;98609.98;104869;1271;61683;-24
2022/06/10 04:15:52;;;;;;;12.80;6.70;;;;;;;23.81;48.46;98614.65;104833;1271;75295;-24
2022/06/10 04:18:19;;;;;;;11.20;6.20;;;;;;;24.03;48.81;98612.81;104866;1271;75709;-24
2022/06/10 04:20:47;;;;;;;9.90;5.30;;;;;;;24.24;48.60;98617.27;104945;1271;75448;-24
2022/06/10 04:23:14;;;;;;;7.10;5.20;;;;;;;24.44;47.35;98620.42;104889;1270;61887;-24
2022/06/10 04:25:41;;;;;;;7.20;5.00;;;;;;;24.47;46.62;98618.24;105087;1271;61935;-24
2022/06/10 04:28:10;;;;;;;7.20;4.80;;;;;;;24.52;47.43;98617.58;105122;1271;76521;-24
2022/06/10 04:30:48;;;;;;;6.70;5.00;;;;;;;24.77;46.65;98619.77;105117;1271;75470;-24
2022/06/10 04:33:16;;;;;;;6.90;4.60;;;;;;;24.71;46.58;98622.74;104786;1271;73446;-24
2022/06/10 04:35:45;;;;;;;8.70;4.70;;;;;;;24.85;47.32;98628.42;104702;1271;62033;-24
2022/06/10 04:38:17;;;;;;;5.30;4.20;;;;;;;25.07;47.07;98626.02;104802;1271;61929;-23
2022/06/10 04:40:44;;;;;;;10.60;4.70;;;;;;;25.23;46.62;98626.23;104808;1271;76637;-23
2022/06/10 04:43:12;;;;;;;12.50;5.10;;;;;;;25.39;46.10;98625.35;104770;1271;77209;-24
2022/06/10 04:45:48;;;;;;;6.40;4.40;;;;;;;25.51;45.90;98624.27;104916;1271;74355;-24
2022/06/10 04:48:16;;;;;;;10.60;4.30;;;;;;;25.58;45.48;98623.94;104715;1271;63096;-24
2022/06/10 04:50:44;;;;;;;5.30;4.40;;;;;;;25.72;46.14;98629.64;104860;1271;62030;-23
2022/06/10 04:53:11;;;;;;;6.20;4.80;;;;;;;25.87;45.23;98628.90;104754;1271;75452;-24
2022/06/10 04:55:39;;;;;;;5.80;4.20;;;;;;;25.96;44.59;98630.16;104692;1271;75083;-23
2022/06/10 04:58:06;;;;;;;11.50;5.80;;;;;;;26.04;44.04;98634.02;104870;1271;75368;-24
2022/06/10 05:00:37;;;;;;;6.40;5.10;;;;;;;25.79;43.56;98632.73;104937;1271;63060;-23
2022/06/10 05:03:04;;;;;;;10.70;5.30;;;;;;;25.54;44.18;98631.54;104699;1271;62082;-23
2022/06/10 05:05:32;;;;;;;7.40;4.40;;;;;;;25.16;45.76;98631.60;104750;1271;76489;-23
2022/06/10 05:08:00;;;;;;;6.70;4.40;;;;;;;25.67;45.56;98638.18;104945;1271;77163;-24
2022/06/10 05:10:28;;;;;;;6.60;4.30;;;;;;;25.97;44.71;98637.31;104879;1271;75386;-24
2022/06/10 05:12:55;;;;;;;8.10;4.00;;;;;;;26.17;44.31;98643.38;104690;1271;61856;-23
2022/06/10 05:15:22;;;;;;;9.10;4.40;;;;;;;26.31;43.41;98645.67;104899;1271;61016;-23
2022/06/10 05:17:51;;;;;;;103.90;9.20;;;;;;;26.38;43.68;98646.19;104850;1271;75646;-23
2022/06/10 05:20:24;;;;;;;5.80;4.00;;;;;;;26.36;43.54;98644.73;104838;1271;77339;-23
2022/06/10 05:22:51;;;;;;;4.80;4.10;;;;;;;26.55;43.61;98644.77;104861;1271;75401;-24
2022/06/10 05:25:19;;;;;;;7.00;4.30;;;;;;;26.78;43.94;98652.38;104886;1271;61054;-23
2022/06/10 05:27:47;;;;;;;4.80;4.30;;;;;;;26.95;42.88;98652.77;104871;1271;61693;-23
2022/06/10 05:30:20;;;;;;;7.20;4.40;;;;;;;26.97;42.49;98656.21;104906;1271;76501;-23
2022/06/10 05:32:47;;;;;;;6.30;4.10;;;;;;;27.14;42.54;98657.98;104698;1271;76533;-23
2022/06/10 05:35:15;;;;;;;8.80;4.90;;;;;;;27.31;42.40;98662.80;104722;1271;75569;-24
2022/06/10 05:37:42;;;;;;;6.90;4.80;;;;;;;27.43;41.76;98667.66;104914;1271;63111;-24
2022/06/10 05:40:21;;;;;;;5.90;4.40;;;;;;;27.59;42.32;98666.70;104886;1271;63084;-23
2022/06/10 05:42:48;;;;;;;5.90;4.90;;;;;;;27.74;42.48;98669.61;104829;1271;74967;-23
2022/06/10 05:45:17;;;;;;;6.90;4.30;;;;;;;27.70;40.69;98666.63;104756;1271;76771;-23
2022/06/10 05:47:46;;;;;;;4.90;3.70;;;;;;;28.01;41.10;98671.02;104913;1271;74437;-23
2022/06/10 05:50:38;;;;;;;6.80;4.00;;;;;;;28.17;40.52;98671.35;104673;1271;61342;-23
2022/06/10 05:53:08;;;;;;;6.20;4.50;;;;;;;28.36;41.56;98670.38;104861;1271;61096;-24
2022/06/10 05:55:37;;;;;;;6.60;4.70;;;;;;;28.53;41.42;98672.63;104740;1271;76590;-23
2022/06/10 05:58:10;;;;;;;5.40;3.90;;;;;;;28.75;41.74;98677.67;104800;1271;76948;-23
2022/06/10 06:00:37;;;;;;;5.50;4.10;;;;;;;28.86;40.97;98676.13;104853;1271;74432;-23
2022/06/10 06:03:04;;;;;;;6.20;4.20;;;;;;;28.89;41.12;98677.77;104850;1271;62002;-23
2022/06/10 06:05:33;;;;;;;7.50;4.30;;;;;;;29.02;40.27;98677.44;104869;1271;63022;-23
2022/06/10 06:08:01;;;;;;;7.50;4.20;;;;;;;29.21;38.90;98676.60;104882;1271;75525;-23
2022/06/10 06:10:28;;;;;;;5.70;4.50;;;;;;;29.38;39.32;98677.39;104913;1271;76928;-24
2022/06/10 06:12:55;;;;;;;6.50;3.80;;;;;;;29.56;40.01;98682.70;105001;1271;75469;-23
2022/06/10 06:15:23;;;;;;;8.20;3.70;;;;;;;29.70;39.71;98687.28;104835;1271;62286;-23
2022/06/10 06:17:51;;;;;;;8.20;4.30;;;;;;;29.73;38.90;98689.24;104697;1271;61768;-23
2022/06/10 06:20:19;;;;;;;6.00;4.00;;;;;;;29.64;37.69;98684.73;104831;1271;76891;-23
2022/06/10 06:22:46;;;;;;;12.00;4.10;;;;;;;29.62;38.18;98686.34;104734;1271;76038;-23
2022/06/10 06:25:15;;;;;;;10.10;3.60;;;;;;;29.77;38.96;98686.41;104758;1271;74781;-24
2022/06/10 06:27:43;;;;;;;9.00;3.40;;;;;;;29.75;37.44;98686.24;104988;1269;62951;-23
2022/06/10 06:30:32;;;;;;;5.60;3.20;;;;;;;29.56;37.36;98686.34;104649;1271;62154;-23
2022/06/10 06:33:02;;;;;;;5.90;3.40;;;;;;;29.52;37.53;98684.18;104691;1271;76657;-23
2022/06/10 06:35:34;;;;;;;9.40;3.80;;;;;;;29.43;37.35;98687.02;104640;1272;77118;-24
2022/06/10 06:38:02;;;;;;;6.10;3.80;;;;;;;29.01;38.24;98692.39;104788;1272;74785;-23
2022/06/10 06:40:30;;;;;;;7.30;5.10;;;;;;;29.32;38.60;98690.56;104967;1271;62047;-23
2022/06/10 06:42:57;;;;;;;7.10;4.60;;;;;;;29.61;38.78;98691.86;104861;1271;62118;-23
2022/06/10 06:45:25;;;;;;;4.10;3.50;;;;;;;29.72;37.83;98687.56;104881;1271;75213;-23
2022/06/10 06:48:05;;;;;;;5.20;3.50;;;;;;;29.81;37.40;98690.77;105064;1271;76757;-24
2022/06/10 06:55:08;;;;;;;5.70;3.90;;;;;;;30.02;38.24;98694.27;105180;1270;61867;-23
2022/06/10 06:57:35;;;;;;;10.30;6.70;;;;;;;30.26;38.17;98691.48;104923;1271;62398;-23
2022/06/10 07:00:06;;;;;;;10.00;7.50;;;;;;;30.27;36.42;98691.96;104769;1270;75478;-23
2022/06/10 07:02:34;;;;;;;11.90;5.90;;;;;;;29.69;37.02;98690.29;104828;1272;76177;-25
2022/06/10 07:05:03;;;;;;;48.70;31.20;;;;;;;28.89;37.51;98691.84;104774;1271;75399;-24
2022/06/10 07:07:31;;;;;;;20.40;14.40;;;;;;;28.50;38.89;98699.73;104731;1271;63125;-23
2022/06/10 07:09:58;;;;;;;10.90;8.00;;;;;;;28.62;39.19;98696.33;104889;1271;62428;-23
2022/06/10 07:12:27;;;;;;;8.80;5.10;;;;;;;29.07;37.64;98691.77;104837;1271;77148;-23
2022/06/10 07:14:54;;;;;;;31.50;19.70;;;;;;;28.37;37.12;98696.01;104806;1271;77260;-23
2022/06/10 07:17:22;;;;;;;14.50;7.60;;;;;;;28.38;38.10;98696.43;104862;1271;75403;-23
2022/06/10 07:19:51;;;;;;;15.50;9.60;;;;;;;28.38;38.63;98699.52;104857;1271;63024;-23
2022/06/10 07:22:18;;;;;;;8.40;4.00;;;;;;;28.71;37.16;98694.23;104858;1271;63094;-23
2022/06/10 07:24:46;;;;;;;7.30;3.20;;;;;;;28.90;37.66;98695.76;104913;1271;75219;-23
2022/06/10 07:27:13;;;;;;;5.80;3.10;;;;;;;29.55;38.22;98693.58;105037;1271;76065;-23
2022/06/10 07:29:40;;;;;;;4.10;3.30;;;;;;;29.89;36.42;98693.40;104765;1271;75076;-24
2022/06/10 07:32:08;;;;;;;8.90;4.70;;;;;;;30.12;35.66;98688.85;104855;1271;62096;-23
2022/06/10 07:34:35;;;;;;;4.40;2.80;;;;;;;29.94;33.62;98690.63;104945;1271;62828;-23
2022/06/10 07:37:04;;;;;;;2.80;2.40;;;;;;;30.39;33.70;98692.95;104865;1271;75473;-23
2022/06/10 07:39:32;;;;;;;2.70;2.50;;;;;;;30.56;32.74;98693.65;104642;1272;77128;-23
2022/06/10 07:42:00;;;;;;;6.20;2.60;;;;;;;30.82;32.84;98696.54;104869;1271;75538;-23
2022/06/10 07:44:33;;;;;;;8.20;5.00;;;;;;;30.63;31.92;98692.58;104736;1271;63408;-23
2022/06/10 07:47:02;;;;;;;3.80;3.20;;;;;;;30.28;32.68;98696.47;104869;1272;62889;-23
2022/06/10 07:49:29;;;;;;;2.80;2.50;;;;;;;29.73;30.95;98693.52;104982;1272;76802;-23
2022/06/10 07:51:57;;;;;;;5.10;2.60;;;;;;;29.93;31.52;98695.77;104745;1271;75961;-23
2022/06/10 07:54:24;;;;;;;3.70;2.20;;;;;;;30.47;31.53;98694.32;104853;1271;74383;-23
2022/06/10 07:56:52;;;;;;;10.70;8.00;;;;;;;30.71;30.43;98696.00;104738;1272;62118;-24
2022/06/10 07:59:19;;;;;;;7.40;3.60;;;;;;;30.26;31.52;98694.95;104936;1271;61738;-23
2022/06/10 08:01:46;;;;;;;3.80;2.60;;;;;;;30.11;32.37;98696.39;104796;1271;76742;-23
2022/06/10 08:04:14;;;;;;;3.50;2.10;;;;;;;30.78;31.11;98696.02;104865;1271;77072;-23
2022/06/10 08:06:44;;;;;;;3.30;2.20;;;;;;;31.08;31.34;98698.07;104841;1271;75489;-23
2022/06/10 08:09:12;;;;;;;6.20;2.00;;;;;;;31.21;30.02;98693.99;104811;1272;63089;-23
2022/06/10 08:11:39;;;;;;;2.30;1.80;;;;;;;31.33;29.57;98691.95;104845;1271;63105;-23
2022/06/10 08:14:07;;;;;;;6.60;4.30;;;;;;;31.07;29.60;98696.29;105013;1271;75558;-23
2022/06/10 08:16:34;;;;;;;5.30;4.00;;;;;;;30.36;29.14;98698.63;104917;1271;76429;-23
2022/06/10 08:19:02;;;;;;;5.00;2.40;;;;;;;30.29;28.48;98697.13;104696;1271;75384;-23
2022/06/10 08:24:17;;;;;;;2.20;1.70;;;;;;;30.81;27.95;98697.09;105083;1272;61011;-23
2022/06/10 08:26:44;;;;;;;7.90;2.00;;;;;;;31.02;27.35;98696.34;104666;1271;75172;-23
2022/06/10 08:29:18;;;;;;;10.20;2.50;;;;;;;30.87;27.62;98700.43;105134;1271;76979;-23
2022/06/10 08:31:45;;;;;;;4.50;2.80;;;;;;;31.12;28.36;98702.64;105136;1271;74201;-23
2022/06/10 08:34:13;;;;;;;3.90;2.90;;;;;;;31.42;27.90;98702.78;105105;1271;62227;-24
2022/06/10 08:36:41;;;;;;;7.30;3.70;;;;;;;31.80;28.49;98702.77;105146;1271;62171;-23
2022/06/10 08:39:10;;;;;;;28.10;4.80;;;;;;;31.99;26.73;98704.55;105144;1271;76597;-24
2022/06/10 08:41:42;;;;;;;25.00;2.90;;;;;;;31.41;25.22;98702.63;105123;1271;75896;-23
2022/06/10 08:44:21;;;;;;;23.70;10.70;;;;;;;31.25;26.25;98701.45;105115;1271;74299;-23
2022/06/10 08:47:07;;;;;;;13.40;3.40;;;;;;;29.91;26.53;98701.39;104862;1271;63139;-23
2022/06/10 08:49:37;;;;;;;10.70;2.40;;;;;;;29.99;27.04;98705.21;104802;1272;63055;-23
2022/06/10 08:52:15;;;;;;;24.30;3.10;;;;;;;29.82;26.55;98705.34;104771;1271;75727;-24
2022/06/10 08:54:42;;;;;;;16.10;3.20;;;;;;;30.44;27.26;98703.76;104761;1270;76988;-23
2022/06/10 08:57:37;;;;;;;20.40;3.40;;;;;;;31.11;26.13;98703.77;104854;1271;75353;-24
2022/06/10 09:00:26;;;;;;;7.40;3.20;;;;;;;31.05;26.39;98706.92;104652;1271;61804;-23
2022/06/10 09:02:59;;;;;;;11.70;2.30;;;;;;;31.38;25.38;98705.38;104767;1271;63092;-22
2022/06/10 09:05:29;;;;;;;41.30;18.10;;;;;;;30.79;25.78;98703.26;104792;1271;75729;-22
2022/06/10 09:08:01;;;;;;;5.00;2.60;;;;;;;30.87;25.25;98704.83;104839;1271;76763;-23
2022/06/10 09:10:47;;;;;;;21.40;3.20;;;;;;;31.43;25.15;98704.51;104664;1271;74084;-24
2022/06/10 09:13:39;;;;;;;5.70;1.60;;;;;;;31.81;24.73;98702.95;104765;1271;62011;-24
2022/06/10 09:16:28;;;;;;;24.60;3.70;;;;;;;31.76;25.92;98702.90;105132;1271;62933;-24
2022/06/10 09:19:17;;;;;;;2.60;1.30;;;;;;;32.16;25.21;98703.55;105116;1271;76499;-24
2022/06/10 09:21:53;;;;;;;4.40;1.50;;;;;;;31.92;24.01;98707.46;105123;1271;75712;-23
2022/06/10 09:24:29;;;;;;;1.80;1.40;;;;;;;32.22;24.76;98707.73;104792;1272;74061;-24
2022/06/10 09:27:09;;;;;;;16.70;8.50;;;;;;;32.38;24.39;98707.46;104972;1271;62017;-24
2022/06/10 09:29:38;;;;;;;4.20;1.90;;;;;;;32.52;24.34;98706.80;104970;1272;62981;-23
2022/06/10 09:32:10;;;;;;;12.30;6.00;;;;;;;32.36;23.83;98706.27;105133;1271;75517;-24
2022/06/10 09:35:04;;;;;;;5.00;1.80;;;;;;;32.01;24.39;98707.73;105065;1271;77109;-25
2022/06/10 09:37:50;;;;;;;2.00;1.50;;;;;;;32.36;24.02;98709.23;104619;1271;74365;-24
2022/06/10 09:40:36;;;;;;;1.70;1.40;;;;;;;31.87;24.46;98708.06;104875;1271;62101;-24
2022/06/10 09:43:26;;;;;;;5.70;1.60;;;;;;;32.17;25.35;98710.28;104747;1272;61108;-24
2022/06/10 09:46:13;;;;;;;2.60;1.50;;;;;;;32.96;24.41;98705.10;104759;1271;76620;-24
2022/06/10 09:48:41;;;;;;;3.90;1.60;;;;;;;32.91;23.95;98702.12;104855;1271;77227;-24
2022/06/10 09:51:24;;;;;;;1.90;1.50;;;;;;;32.88;24.26;98703.39;104970;1271;74283;-23
2022/06/10 09:54:11;;;;;;;2.20;1.50;;;;;;;33.11;24.14;98701.64;104725;1274;62116;-24
2022/06/10 09:56:56;;;;;;;1.90;1.30;;;;;;;33.15;24.31;98703.22;104885;1271;61768;-24
2022/06/10 09:59:27;;;;;;;7.00;2.00;;;;;;;33.11;24.49;98705.25;104867;1272;75234;-24
2022/06/10 10:02:26;;;;;;;2.50;1.70;;;;;;;32.73;25.31;98703.38;104757;1272;75843;-24
2022/06/10 10:05:16;;;;;;;3.70;1.50;;;;;;;32.37;24.71;98706.55;104960;1271;74376;-24
2022/06/10 10:07:46;;;;;;;1.90;1.70;;;;;;;32.19;24.42;98706.14;104925;1271;62872;-24
2022/06/10 10:10:19;;;;;;;3.10;1.40;;;;;;;32.38;23.88;98708.85;104751;1272;63033;-24
2022/06/10 10:12:55;;;;;;;2.70;1.40;;;;;;;32.54;24.19;98708.77;104658;1271;75342;-24
2022/06/10 10:15:31;;;;;;;2.40;1.30;;;;;;;32.59;24.46;98709.48;104755;1274;76243;-24
2022/06/10 10:18:10;;;;;;;2.40;1.40;;;;;;;32.56;24.97;98710.05;104851;1272;75404;-24
2022/06/10 10:20:47;;;;;;;1.70;1.40;;;;;;;32.82;25.77;98712.09;104783;1271;61993;-24
2022/06/10 10:23:17;;;;;;;3.80;1.50;;;;;;;33.10;25.49;98709.41;104920;1271;62773;-24
2022/06/10 10:25:44;;;;;;;5.90;5.10;;;;;;;33.28;25.76;98708.00;104691;1271;76300;-24
2022/06/10 10:28:19;;;;;;;5.00;3.60;;;;;;;33.55;25.06;98708.42;104777;1271;75971;-24
2022/06/10 10:31:08;;;;;;;4.10;1.60;;;;;;;33.54;23.94;98702.36;104786;1271;74404;-24
2022/06/10 10:33:35;;;;;;;3.20;1.70;;;;;;;33.91;24.79;98700.97;105131;1271;63082;-24
2022/06/10 10:36:10;;;;;;;29.70;18.60;;;;;;;33.88;24.19;98704.62;104938;1271;63051;-24
2022/06/10 10:38:42;;;;;;;6.30;4.10;;;;;;;32.77;25.82;98707.54;104680;1272;75505;-24
2022/06/10 10:41:28;;;;;;;3.20;1.70;;;;;;;33.20;23.38;98703.93;104660;1271;75844;-24
2022/06/10 10:44:00;;;;;;;2.40;1.50;;;;;;;32.85;23.49;98708.73;104772;1271;74162;-24
2022/06/10 10:46:31;;;;;;;7.90;1.90;;;;;;;33.04;22.95;98707.09;104630;1272;63254;-24
2022/06/10 10:48:58;;;;;;;7.40;6.00;;;;;;;33.16;23.61;98704.40;104840;1274;61010;-24
2022/06/10 10:51:33;;;;;;;13.80;9.00;;;;;;;31.69;24.90;98706.78;104723;1271;76441;-24
2022/06/10 10:54:33;;;;;;;2.30;2.10;;;;;;;32.46;25.22;98709.09;104749;1272;76997;-24
2022/06/10 10:57:00;;;;;;;2.30;1.40;;;;;;;32.63;25.12;98708.40;104751;1271;75446;-24
2022/06/10 10:59:37;;;;;;;9.60;4.50;;;;;;;31.77;26.31;98705.27;104790;1271;61134;-24
2022/06/10 11:02:35;;;;;;;17.30;9.70;;;;;;;30.64;27.92;98706.23;104691;1272;61772;-24
2022/06/10 11:05:22;;;;;;;11.30;6.30;;;;;;;31.12;28.03;98710.80;104883;1271;76661;-24
2022/06/10 11:08:12;;;;;;;8.70;4.80;;;;;;;31.83;28.10;98706.64;104803;1271;76882;-24
2022/06/10 11:10:58;;;;;;;8.00;2.80;;;;;;;31.25;27.57;98708.55;104527;1270;75218;-24
2022/06/10 11:13:49;;;;;;;14.50;11.10;;;;;;;31.89;26.89;98704.48;104853;1271;62849;-24
2022/06/10 11:16:23;;;;;;;4.60;2.10;;;;;;;32.41;26.09;98707.34;105032;1272;63080;-24
2022/06/10 11:18:52;;;;;;;3.90;1.60;;;;;;;32.32;26.49;98709.30;104914;1272;75455;-24
2022/06/10 11:21:21;;;;;;;12.00;2.20;;;;;;;33.11;27.03;98703.31;104667;1271;75206;-24
2022/06/10 11:23:56;;;;;;;1.70;1.40;;;;;;;33.69;25.05;98699.27;104668;1272;75714;-24
2022/06/10 11:26:25;;;;;;;2.40;1.90;;;;;;;33.69;24.21;98699.14;104728;1272;63059;-24
2022/06/10 11:29:04;;;;;;;4.50;2.20;;;;;;;32.95;24.95;98697.51;104755;1271;63201;-24
2022/06/10 11:31:38;;;;;;;4.50;1.50;;;;;;;32.80;24.76;98703.58;104903;1271;76676;-24
2022/06/10 11:34:13;;;;;;;4.80;1.60;;;;;;;31.75;25.11;98704.97;104787;1272;77066;-24
2022/06/10 11:36:45;;;;;;;2.80;1.30;;;;;;;32.27;25.81;98707.66;104718;1271;75569;-24
2022/06/10 11:39:17;;;;;;;12.50;7.00;;;;;;;32.33;25.79;98704.64;104684;1272;62221;-24
2022/06/10 11:42:09;;;;;;;4.70;3.50;;;;;;;30.79;25.87;98700.52;104703;1271;62027;-24
2022/06/10 11:44:45;;;;;;;8.00;2.20;;;;;;;30.33;27.28;98703.52;105060;1272;76591;-24
2022/06/10 11:47:27;;;;;;;3.30;2.10;;;;;;;30.57;26.79;98703.90;105173;1272;77058;-24
2022/06/10 11:49:58;;;;;;;3.20;1.40;;;;;;;31.17;26.76;98702.80;105066;1271;74437;-24
2022/06/10 11:53:01;;;;;;;2.60;1.70;;;;;;;31.42;26.89;98700.59;105116;1272;63194;-24
2022/06/10 11:55:31;;;;;;;11.30;6.10;;;;;;;31.08;26.21;98698.38;104827;1271;61685;-24
2022/06/10 12:00:52;;;;;;;12.70;3.00;;;;;;;31.81;26.13;98689.27;105127;1271;75961;-24
2022/06/10 12:03:46;;;;;;;7.40;3.70;;;;;;;32.19;27.16;98689.71;105116;1271;75453;-24
2022/06/10 12:06:13;;;;;;;17.40;14.00;;;;;;;31.91;25.50;98688.77;105144;1271;63327;-24
2022/06/10 12:08:42;;;;;;;6.60;4.80;;;;;;;31.81;25.80;98689.79;104909;1271;61685;-24